createdAt,value
2024-01-20T00:01:30.273Z,25.74
2024-01-20T00:03:58.256Z,25.10
2024-01-20T00:06:26.221Z,24.98
2024-01-20T00:08:54.370Z,24.72
2024-01-20T00:11:23.623Z,24.31
2024-01-20T00:13:51.540Z,24.50
2024-01-20T00:16:19.682Z,24.78
2024-01-20T00:18:48.552Z,24.50
2024-01-20T00:21:17.368Z,24.06
2024-01-20T00:23:45.243Z,23.82
2024-01-20T00:26:13.429Z,23.85
2024-01-20T00:28:42.686Z,24.28
2024-01-20T00:31:12.678Z,24.58
2024-01-20T00:33:41.360Z,24.86
2024-01-20T00:36:10.092Z,24.41
2024-01-20T00:38:40.612Z,23.65
2024-01-20T00:41:09.038Z,23.40
2024-01-20T00:43:37.313Z,24.31
2024-01-20T00:46:05.463Z,25.16
2024-01-20T00:48:33.733Z,24.43
2024-01-20T00:51:02.162Z,23.35
2024-01-20T00:53:30.392Z,22.89
2024-01-20T00:55:58.675Z,22.90
2024-01-20T00:58:29.705Z,23.22
2024-01-20T01:00:58.617Z,22.98
2024-01-20T01:03:26.787Z,23.44
2024-01-20T01:05:54.751Z,23.41
2024-01-20T01:08:23.145Z,23.60
2024-01-20T01:10:51.227Z,24.45
2024-01-20T01:13:19.309Z,24.50
2024-01-20T01:15:47.385Z,24.58
2024-01-20T01:18:15.331Z,25.32
2024-01-20T01:20:43.278Z,25.78
2024-01-20T01:23:11.211Z,26.24
2024-01-20T01:25:40.043Z,26.86
2024-01-20T01:28:08.171Z,27.80
2024-01-20T01:30:36.308Z,27.97
2024-01-20T01:33:04.885Z,28.32
2024-01-20T01:35:32.700Z,28.68
2024-01-20T01:38:00.772Z,28.22
2024-01-20T01:40:29.604Z,28.03
2024-01-20T01:42:58.737Z,27.56
2024-01-20T01:45:27.249Z,27.17
2024-01-20T01:47:57.582Z,26.09
2024-01-20T01:50:26.596Z,25.59
2024-01-20T01:52:56.068Z,24.97
2024-01-20T01:55:25.877Z,26.05
2024-01-20T01:57:55.283Z,27.28
2024-01-20T02:00:23.451Z,29.34
2024-01-20T02:02:52.963Z,30.19
2024-01-20T02:05:21.061Z,29.94
2024-01-20T02:07:50.821Z,30.83
2024-01-20T02:10:19.353Z,30.73
2024-01-20T02:12:47.532Z,30.09
2024-01-20T02:15:18.775Z,28.96
2024-01-20T02:17:51.478Z,28.08
2024-01-20T02:20:19.836Z,27.17
2024-01-20T02:22:48.643Z,27.52
2024-01-20T02:25:16.995Z,27.97
2024-01-20T02:27:44.977Z,28.56
2024-01-20T02:30:13.177Z,28.94
2024-01-20T02:32:41.134Z,30.53
2024-01-20T02:35:10.782Z,31.09
2024-01-20T02:37:38.663Z,30.49
2024-01-20T02:40:08.775Z,30.29
2024-01-20T02:42:36.735Z,29.92
2024-01-20T02:45:06.083Z,29.49
2024-01-20T02:47:34.137Z,29.48
2024-01-20T02:50:02.703Z,29.77
2024-01-20T02:52:30.932Z,29.94
2024-01-20T02:54:59.087Z,29.79
2024-01-20T02:57:27.175Z,30.09
2024-01-20T02:59:55.184Z,30.05
2024-01-20T03:02:25.024Z,29.63
2024-01-20T03:04:53.011Z,29.80
2024-01-20T03:07:22.038Z,29.63
2024-01-20T03:09:49.936Z,29.66
2024-01-20T03:12:17.940Z,30.50
2024-01-20T03:14:45.789Z,30.64
2024-01-20T03:17:13.674Z,30.66
2024-01-20T03:19:41.605Z,29.54
2024-01-20T03:22:09.423Z,28.63
2024-01-20T03:24:37.622Z,28.32
2024-01-20T03:27:06.132Z,27.57
2024-01-20T03:29:34.080Z,27.27
2024-01-20T03:32:02.300Z,27.25
2024-01-20T03:34:30.258Z,26.53
2024-01-20T03:36:58.789Z,25.99
2024-01-20T03:39:26.634Z,25.51
2024-01-20T03:41:54.596Z,24.94
2024-01-20T03:44:22.533Z,24.05
2024-01-20T03:46:50.500Z,24.27
2024-01-20T03:49:19.699Z,24.76
2024-01-20T03:51:47.577Z,25.64
2024-01-20T03:54:17.986Z,26.01
2024-01-20T03:56:46.332Z,26.73
2024-01-20T03:59:14.214Z,26.86
2024-01-20T04:01:42.093Z,26.96
2024-01-20T04:04:10.631Z,27.32
2024-01-20T04:06:40.075Z,27.52
2024-01-20T04:09:07.977Z,27.46
2024-01-20T04:11:36.050Z,27.35
2024-01-20T04:14:04.634Z,27.23
2024-01-20T04:16:34.425Z,27.35
2024-01-20T04:19:03.879Z,27.01
2024-01-20T04:21:32.023Z,27.24
2024-01-20T04:24:00.613Z,27.28
2024-01-20T04:26:30.981Z,27.63
2024-01-20T04:28:59.864Z,27.92
2024-01-20T04:31:28.159Z,27.85
2024-01-20T04:33:57.466Z,27.09
2024-01-20T04:36:25.720Z,27.04
2024-01-20T04:38:53.806Z,26.67
2024-01-20T04:41:22.080Z,26.54
2024-01-20T04:43:49.910Z,26.16
2024-01-20T04:46:18.035Z,25.35
2024-01-20T04:48:46.637Z,25.17
2024-01-20T04:51:16.686Z,25.22
2024-01-20T04:53:47.774Z,25.41
2024-01-20T04:56:42.965Z,25.23
2024-01-20T04:59:11.383Z,24.42
2024-01-20T05:01:40.777Z,24.34
2024-01-20T05:04:08.979Z,24.26
2024-01-20T05:06:37.263Z,23.99
2024-01-20T05:09:05.895Z,24.28
2024-01-20T05:11:37.757Z,24.49
2024-01-20T05:14:06.161Z,24.70
2024-01-20T05:16:34.053Z,24.46
2024-01-20T05:19:03.183Z,23.90
2024-01-20T05:21:31.490Z,24.21
2024-01-20T05:23:59.466Z,24.30
2024-01-20T05:26:27.786Z,24.16
2024-01-20T05:28:57.151Z,24.24
2024-01-20T05:31:25.975Z,23.83
2024-01-20T05:33:54.065Z,23.15
2024-01-20T05:36:22.795Z,23.26
2024-01-20T05:38:53.252Z,23.73
2024-01-20T05:41:22.200Z,23.96
2024-01-20T05:43:50.112Z,23.93
2024-01-20T05:46:21.293Z,24.63
2024-01-20T05:48:51.300Z,25.97
2024-01-20T05:51:20.608Z,27.07
2024-01-20T05:53:48.705Z,27.28
2024-01-20T05:56:17.667Z,26.59
2024-01-20T05:58:45.787Z,25.58
2024-01-20T06:01:15.379Z,25.22
2024-01-20T06:03:43.755Z,25.26
2024-01-20T06:06:13.776Z,25.88
2024-01-20T06:08:41.848Z,26.08
2024-01-20T06:11:11.210Z,26.17
2024-01-20T06:13:39.481Z,26.46
2024-01-20T06:16:08.155Z,25.65
2024-01-20T06:18:36.186Z,24.92
2024-01-20T06:21:05.506Z,24.95
2024-01-20T06:23:34.470Z,24.60
2024-01-20T06:26:02.458Z,24.50
2024-01-20T06:28:30.333Z,25.37
2024-01-20T06:30:58.434Z,25.49
2024-01-20T06:33:26.581Z,25.25
2024-01-20T06:35:55.080Z,25.26
2024-01-20T06:38:22.970Z,25.40
2024-01-20T06:40:51.128Z,25.71
2024-01-20T06:43:19.117Z,26.13
2024-01-20T06:45:47.618Z,26.26
2024-01-20T06:48:17.788Z,26.19
2024-01-20T06:50:45.848Z,25.87
2024-01-20T06:53:13.838Z,24.98
2024-01-20T06:55:42.665Z,24.35
2024-01-20T06:58:11.099Z,23.60
2024-01-20T07:00:39.032Z,23.70
2024-01-20T07:03:07.720Z,24.22
2024-01-20T07:05:35.654Z,24.19
2024-01-20T07:08:05.774Z,23.89
2024-01-20T07:10:33.765Z,24.22
2024-01-20T07:13:02.874Z,24.66
2024-01-20T07:15:31.576Z,25.24
2024-01-20T07:18:00.431Z,25.67
2024-01-20T07:20:28.449Z,25.37
2024-01-20T07:22:56.291Z,25.91
2024-01-20T07:25:24.254Z,25.98
2024-01-20T07:27:52.713Z,26.01
2024-01-20T07:30:21.395Z,25.98
2024-01-20T07:32:49.884Z,25.34
2024-01-20T07:35:17.725Z,25.44
2024-01-20T07:37:47.520Z,25.70
2024-01-20T07:40:18.267Z,26.46
2024-01-20T07:42:46.364Z,27.20
2024-01-20T07:45:14.308Z,29.42
2024-01-20T07:47:42.581Z,29.56
2024-01-20T07:50:10.608Z,28.67
2024-01-20T07:52:40.947Z,27.85
2024-01-20T07:55:11.458Z,26.90
2024-01-20T07:57:40.388Z,25.97
2024-01-20T08:00:16.558Z,25.22
2024-01-20T08:02:44.660Z,24.74
2024-01-20T08:05:12.675Z,24.43
2024-01-20T08:07:40.604Z,25.04
2024-01-20T08:10:09.176Z,25.81
2024-01-20T08:12:37.205Z,25.98
2024-01-20T08:15:06.358Z,26.00
2024-01-20T08:17:34.230Z,25.45
2024-01-20T08:20:02.280Z,25.02
2024-01-20T08:22:30.397Z,24.73
2024-01-20T08:25:02.187Z,24.30
2024-01-20T08:27:30.261Z,24.05
2024-01-20T08:29:59.303Z,23.80
2024-01-20T08:32:27.618Z,23.73
2024-01-20T08:34:59.039Z,23.28
2024-01-20T08:37:26.907Z,22.70
2024-01-20T08:39:54.829Z,22.62
2024-01-20T08:42:22.855Z,23.10
2024-01-20T08:44:50.734Z,24.22
2024-01-20T08:47:18.612Z,24.10
2024-01-20T08:49:53.388Z,24.44
2024-01-20T08:52:21.961Z,24.24
2024-01-20T08:54:49.851Z,23.54
2024-01-20T08:57:17.752Z,23.41
2024-01-20T08:59:45.952Z,24.72
2024-01-20T09:02:17.345Z,25.75
2024-01-20T09:04:47.663Z,26.89
2024-01-20T09:07:17.835Z,27.75
2024-01-20T09:09:45.796Z,27.27
2024-01-20T09:12:13.906Z,27.15
2024-01-20T09:14:41.744Z,26.90
2024-01-20T09:17:09.604Z,27.15
2024-01-20T09:19:37.563Z,27.37
2024-01-20T09:22:05.542Z,27.63
2024-01-20T09:24:33.909Z,26.96
2024-01-20T09:27:02.056Z,27.25
2024-01-20T09:29:32.079Z,27.25
2024-01-20T09:32:05.409Z,27.59
2024-01-20T09:34:33.304Z,28.15
2024-01-20T09:37:01.206Z,27.75
2024-01-20T09:39:30.448Z,27.70
2024-01-20T09:42:00.421Z,27.46
2024-01-20T09:44:28.725Z,26.60
2024-01-20T09:46:56.857Z,26.45
2024-01-20T09:49:25.602Z,27.38
2024-01-20T09:52:01.658Z,27.47
2024-01-20T09:54:29.785Z,26.95
2024-01-20T09:56:57.673Z,26.28
2024-01-20T09:59:29.693Z,26.05
2024-01-20T10:01:58.554Z,26.03
2024-01-20T10:04:29.371Z,26.06
2024-01-20T10:06:57.270Z,26.14
2024-01-20T10:09:26.797Z,25.41
2024-01-20T10:11:55.056Z,25.20
2024-01-20T10:14:23.203Z,25.06
2024-01-20T10:16:51.390Z,26.22
2024-01-20T10:19:19.515Z,26.70
2024-01-20T10:21:51.102Z,26.46
2024-01-20T10:24:24.578Z,26.17
2024-01-20T10:26:53.898Z,26.14
2024-01-20T10:29:21.718Z,26.21
2024-01-20T10:31:49.673Z,25.74
2024-01-20T10:34:17.982Z,25.41
2024-01-20T10:36:48.073Z,25.02
2024-01-20T10:39:21.553Z,25.15
2024-01-20T10:41:54.829Z,25.00
2024-01-20T10:44:31.693Z,24.87
2024-01-20T10:47:10.101Z,24.68
2024-01-20T10:49:42.006Z,25.76
2024-01-20T10:52:11.044Z,25.88
2024-01-20T10:54:42.181Z,25.99
2024-01-20T10:57:13.753Z,26.09
2024-01-20T10:59:45.393Z,25.93
2024-01-20T11:02:15.030Z,24.91
2024-01-20T11:04:46.246Z,24.64
2024-01-20T11:07:15.121Z,25.08
2024-01-20T11:09:43.394Z,25.95
2024-01-20T11:12:13.619Z,27.06
2024-01-20T11:14:52.499Z,27.23
2024-01-20T11:17:23.768Z,27.55
2024-01-20T11:19:52.558Z,27.43
2024-01-20T11:22:41.593Z,27.11
2024-01-20T11:25:11.419Z,26.68
2024-01-20T11:27:56.643Z,27.05
2024-01-20T11:30:36.373Z,26.75
2024-01-20T11:33:06.271Z,26.42
2024-01-20T11:35:38.942Z,26.22
2024-01-20T11:38:09.252Z,25.77
2024-01-20T11:40:37.119Z,25.43
2024-01-20T11:43:11.384Z,25.61
2024-01-20T11:45:41.636Z,25.67
2024-01-20T11:48:14.014Z,25.27
2024-01-20T11:50:43.695Z,25.36
2024-01-20T11:53:12.926Z,25.73
2024-01-20T11:55:41.045Z,25.49
2024-01-20T11:58:08.963Z,25.52
2024-01-20T12:00:36.874Z,25.56
2024-01-20T12:03:05.171Z,25.44
2024-01-20T12:05:34.926Z,24.70
2024-01-20T12:08:05.415Z,24.95
2024-01-20T12:10:36.807Z,25.36
2024-01-20T12:13:05.757Z,25.59
2024-01-20T12:15:38.027Z,25.81
2024-01-20T12:18:07.536Z,25.88
2024-01-20T12:20:38.447Z,25.66
2024-01-20T12:23:08.936Z,25.52
2024-01-20T12:25:39.948Z,25.46
2024-01-20T12:28:08.051Z,25.34
2024-01-20T12:30:36.231Z,25.23
2024-01-20T12:33:05.538Z,25.17
2024-01-20T12:35:33.755Z,25.23
2024-01-20T12:38:01.646Z,25.22
2024-01-20T12:40:30.785Z,25.20
2024-01-20T12:42:58.971Z,24.92
2024-01-20T12:45:28.243Z,24.59
2024-01-20T12:47:56.210Z,24.74
2024-01-20T12:50:24.010Z,24.94
2024-01-20T12:52:52.659Z,24.90
2024-01-20T12:55:20.869Z,24.94
2024-01-20T12:57:48.938Z,24.62
2024-01-20T13:00:17.971Z,24.06
2024-01-20T13:02:45.942Z,24.24
2024-01-20T13:05:14.025Z,24.61
2024-01-20T13:07:41.926Z,25.18
2024-01-20T13:10:10.628Z,24.81
2024-01-20T13:12:38.632Z,24.74
2024-01-20T13:15:08.773Z,24.60
2024-01-20T13:17:36.994Z,24.60
2024-01-20T13:20:05.329Z,24.43
2024-01-20T13:22:33.254Z,24.31
2024-01-20T13:25:01.130Z,24.18
2024-01-20T13:27:29.049Z,24.13
2024-01-20T13:29:57.003Z,24.04
2024-01-20T13:32:25.190Z,24.40
2024-01-20T13:34:53.090Z,24.64
2024-01-20T13:37:23.014Z,24.34
2024-01-20T13:39:52.714Z,24.88
2024-01-20T13:42:20.575Z,25.41
2024-01-20T13:44:48.470Z,24.77
2024-01-20T13:47:16.392Z,25.13
2024-01-20T13:49:46.193Z,25.75
2024-01-20T13:52:14.313Z,26.05
2024-01-20T13:54:43.714Z,26.11
2024-01-20T13:57:11.811Z,26.25
2024-01-20T13:59:39.737Z,26.00
2024-01-20T14:02:07.762Z,25.73
2024-01-20T14:04:36.730Z,25.78
2024-01-20T14:07:06.333Z,26.03
2024-01-20T14:09:34.500Z,26.31
2024-01-20T14:12:02.441Z,26.31
2024-01-20T14:14:30.396Z,26.16
2024-01-20T14:17:01.726Z,26.32
2024-01-20T14:19:30.291Z,26.36
2024-01-20T14:21:58.490Z,26.19
2024-01-20T14:24:28.325Z,26.25
2024-01-20T14:26:56.988Z,26.17
2024-01-20T14:29:25.001Z,25.94
2024-01-20T14:31:54.120Z,26.04
2024-01-20T14:34:23.060Z,26.04
2024-01-20T14:36:54.798Z,26.32
2024-01-20T14:39:24.758Z,26.66
2024-01-20T14:41:54.633Z,27.09
2024-01-20T14:44:24.420Z,27.54
2024-01-20T14:46:52.512Z,27.85
2024-01-20T14:49:20.785Z,27.86
2024-01-20T14:51:51.940Z,27.57
2024-01-20T14:54:19.923Z,27.62
2024-01-20T14:56:47.867Z,27.65
2024-01-20T14:59:15.869Z,27.39
2024-01-20T15:01:48.526Z,27.19
2024-01-20T15:04:16.879Z,27.26
2024-01-20T15:06:45.035Z,27.28
2024-01-20T15:09:13.239Z,27.15
2024-01-20T15:11:41.302Z,27.42
2024-01-20T15:14:09.244Z,27.03
2024-01-20T15:16:37.694Z,27.04
2024-01-20T15:19:07.164Z,27.06
2024-01-20T15:21:36.292Z,27.06
2024-01-20T15:24:04.856Z,27.00
2024-01-20T15:26:33.282Z,26.77
2024-01-20T15:29:01.120Z,27.06
2024-01-20T15:31:29.006Z,26.91
2024-01-20T15:33:58.643Z,26.74
2024-01-20T15:36:26.731Z,26.87
2024-01-20T15:38:54.679Z,27.07
2024-01-20T15:41:24.026Z,27.29
2024-01-20T15:43:51.965Z,27.47
2024-01-20T15:46:20.381Z,27.64
2024-01-20T15:48:49.096Z,28.14
2024-01-20T15:51:17.805Z,28.13
2024-01-20T15:53:46.938Z,28.01
2024-01-20T15:56:15.363Z,28.01
2024-01-20T15:58:43.507Z,27.95
2024-01-20T16:01:11.886Z,28.24
2024-01-20T16:03:39.949Z,28.44
2024-01-20T16:06:10.056Z,28.71
2024-01-20T16:08:38.328Z,29.01
2024-01-20T16:11:06.553Z,29.06
2024-01-20T16:13:35.102Z,29.12
2024-01-20T16:16:04.284Z,29.13
2024-01-20T16:18:32.799Z,29.25
2024-01-20T16:21:03.986Z,29.23
2024-01-20T16:23:32.324Z,29.05
2024-01-20T16:26:00.216Z,28.96
2024-01-20T16:28:32.508Z,28.98
2024-01-20T16:31:01.990Z,29.02
2024-01-20T16:33:30.053Z,28.92
2024-01-20T16:35:58.068Z,29.00
2024-01-20T16:38:27.968Z,28.97
2024-01-20T16:40:59.424Z,28.93
2024-01-20T16:43:28.444Z,28.83
2024-01-20T16:45:57.053Z,28.80
2024-01-20T16:48:25.152Z,28.88
2024-01-20T16:50:53.581Z,28.94
2024-01-20T16:53:23.620Z,28.94
2024-01-20T16:55:51.481Z,28.91
2024-01-20T16:58:21.946Z,28.93
2024-01-20T17:00:50.151Z,28.95
2024-01-20T17:03:19.223Z,29.07
2024-01-20T17:05:49.808Z,29.03
2024-01-20T17:08:19.890Z,29.14
2024-01-20T17:10:47.884Z,29.12
2024-01-20T17:13:16.345Z,29.19
2024-01-20T17:15:50.697Z,29.50
2024-01-20T17:18:18.718Z,29.48
2024-01-20T17:20:52.622Z,29.47
2024-01-20T17:23:21.659Z,29.86
2024-01-20T17:25:49.518Z,30.39
2024-01-20T17:28:19.118Z,30.33
2024-01-20T17:30:52.635Z,30.34
2024-01-20T17:33:21.702Z,30.19
2024-01-20T17:35:54.428Z,30.27
2024-01-20T17:38:26.102Z,30.10
2024-01-20T17:40:53.978Z,30.17
2024-01-20T17:43:21.940Z,30.18
2024-01-20T17:45:58.460Z,30.12
2024-01-20T17:48:26.843Z,30.47
2024-01-20T17:50:54.750Z,30.77
2024-01-20T17:53:22.613Z,30.19
2024-01-20T17:55:50.584Z,30.31
2024-01-20T17:58:20.315Z,30.35
2024-01-20T18:00:50.722Z,30.37
2024-01-20T18:03:19.848Z,30.26
2024-01-20T18:05:48.302Z,30.51
2024-01-20T18:08:16.478Z,30.77
2024-01-20T18:10:44.346Z,30.66
2024-01-20T18:13:12.256Z,30.50
2024-01-20T18:15:40.398Z,30.55
2024-01-20T18:18:08.876Z,30.55
2024-01-20T18:20:37.037Z,30.45
2024-01-20T18:23:05.514Z,30.69
2024-01-20T18:25:34.486Z,31.03
2024-01-20T18:28:05.885Z,30.92
2024-01-20T18:30:38.902Z,30.73
2024-01-20T18:33:08.622Z,30.83
2024-01-20T18:35:36.856Z,30.92
2024-01-20T18:38:09.049Z,30.77
2024-01-20T18:40:37.029Z,30.79
2024-01-20T18:43:06.141Z,30.90
2024-01-20T18:45:35.080Z,31.06
2024-01-20T18:48:04.003Z,30.97
2024-01-20T18:50:35.228Z,31.74
2024-01-20T18:53:03.579Z,32.09
2024-01-20T18:55:32.870Z,32.16
2024-01-20T18:58:00.794Z,32.09
2024-01-20T19:00:28.743Z,32.07
2024-01-20T19:02:57.834Z,32.03
2024-01-20T19:05:27.178Z,32.02
2024-01-20T19:07:55.159Z,31.78
2024-01-20T19:10:23.005Z,31.87
2024-01-20T19:12:51.958Z,31.77
2024-01-20T19:15:20.917Z,31.72
2024-01-20T19:17:51.223Z,31.75
2024-01-20T19:20:23.990Z,31.78
2024-01-20T19:22:51.977Z,31.73
2024-01-20T19:25:19.773Z,31.72
2024-01-20T19:27:48.455Z,31.63
2024-01-20T19:30:17.108Z,31.61
2024-01-20T19:32:46.369Z,31.71
2024-01-20T19:35:14.746Z,31.93
2024-01-20T19:37:42.694Z,32.10
2024-01-20T19:40:14.309Z,32.23
2024-01-20T19:42:43.536Z,32.79
2024-01-20T19:45:12.501Z,32.80
2024-01-20T19:47:40.598Z,32.88
2024-01-20T19:50:09.182Z,32.63
2024-01-20T19:52:39.595Z,32.45
2024-01-20T19:55:09.414Z,32.22
2024-01-20T19:57:37.810Z,32.29
2024-01-20T20:00:07.343Z,32.30
2024-01-20T20:02:35.395Z,32.10
2024-01-20T20:05:05.285Z,32.46
2024-01-20T20:07:34.276Z,32.44
2024-01-20T20:10:03.515Z,32.35
2024-01-20T20:12:32.030Z,32.46
2024-01-20T20:15:03.958Z,32.73
2024-01-20T20:17:34.267Z,32.65
2024-01-20T20:20:02.695Z,32.51
2024-01-20T20:22:32.422Z,32.81
2024-01-20T20:25:00.390Z,33.18
2024-01-20T20:27:28.308Z,32.75
2024-01-20T20:29:57.398Z,32.56
2024-01-20T20:32:26.246Z,32.45
2024-01-20T20:34:58.995Z,32.78
2024-01-20T20:37:27.059Z,33.77
2024-01-20T20:39:55.427Z,33.90
2024-01-20T20:42:24.603Z,34.35
2024-01-20T20:44:53.976Z,34.44
2024-01-20T20:47:21.849Z,34.52
2024-01-20T20:49:51.724Z,34.82
2024-01-20T20:52:20.098Z,35.09
2024-01-20T20:54:48.097Z,34.61
2024-01-20T20:57:16.372Z,34.28
2024-01-20T20:59:45.908Z,33.70
2024-01-20T21:02:14.695Z,33.55
2024-01-20T21:04:42.927Z,33.16
2024-01-20T21:07:11.679Z,32.77
2024-01-20T21:09:43.188Z,32.35
2024-01-20T21:12:22.892Z,31.58
2024-01-20T21:14:50.994Z,29.62
2024-01-20T21:17:19.353Z,30.44
2024-01-20T21:19:47.495Z,31.95
2024-01-20T21:22:15.466Z,32.02
2024-01-20T21:24:43.402Z,36.36
2024-01-20T21:27:12.187Z,39.38
2024-01-20T21:29:40.458Z,41.94
2024-01-20T21:32:08.302Z,42.62
2024-01-20T21:34:36.304Z,43.53
2024-01-20T21:37:04.796Z,57.24
2024-01-20T21:39:34.525Z,56.71
2024-01-20T21:42:03.233Z,48.68
2024-01-20T21:44:32.057Z,44.41
2024-01-20T21:46:59.928Z,41.75
2024-01-20T21:49:28.028Z,40.54
2024-01-20T21:51:58.896Z,39.46
2024-01-20T21:54:29.530Z,38.19
2024-01-20T21:56:57.588Z,37.33
2024-01-20T21:59:25.827Z,36.54
2024-01-20T22:01:54.335Z,36.06
2024-01-20T22:04:22.444Z,35.49
2024-01-20T22:06:51.328Z,34.91
2024-01-20T22:09:22.365Z,35.17
2024-01-20T22:11:51.520Z,35.29
2024-01-20T22:14:19.537Z,35.05
2024-01-20T22:16:49.337Z,34.70
2024-01-20T22:19:17.259Z,34.24
2024-01-20T22:21:46.369Z,33.43
2024-01-20T22:24:14.423Z,31.82
2024-01-20T22:26:42.647Z,29.42
2024-01-20T22:29:19.225Z,30.97
2024-01-20T22:31:56.087Z,36.33
2024-01-20T22:34:31.999Z,40.18
2024-01-20T22:37:01.293Z,42.14
2024-01-20T22:39:29.418Z,44.09
2024-01-20T22:41:57.462Z,45.42
2024-01-20T22:44:25.697Z,45.00
2024-01-20T22:46:54.615Z,50.15
2024-01-20T22:49:23.055Z,61.78
2024-01-20T22:51:51.570Z,54.04
2024-01-20T22:54:23.607Z,49.37
2024-01-20T22:56:52.829Z,44.76
2024-01-20T22:59:20.872Z,42.18
2024-01-20T23:01:48.720Z,40.31
2024-01-20T23:04:16.799Z,39.06
2024-01-20T23:06:46.815Z,37.89
2024-01-20T23:09:14.709Z,37.13
2024-01-20T23:11:42.694Z,36.76
2024-01-20T23:14:11.910Z,35.94
2024-01-20T23:16:42.238Z,35.60
2024-01-20T23:19:10.579Z,35.13
2024-01-20T23:21:38.926Z,34.35
2024-01-20T23:24:06.806Z,33.91
2024-01-20T23:26:36.268Z,34.05
2024-01-20T23:29:04.433Z,34.00
2024-01-20T23:31:32.413Z,32.46
2024-01-20T23:34:00.633Z,31.79
2024-01-20T23:36:28.666Z,32.43
2024-01-20T23:38:57.284Z,32.94
2024-01-20T23:41:25.466Z,37.18
2024-01-20T23:43:53.455Z,39.33
2024-01-20T23:46:21.311Z,38.17
2024-01-20T23:48:49.204Z,39.68
2024-01-20T23:51:17.476Z,47.02
2024-01-20T23:53:45.331Z,53.68
2024-01-20T23:56:13.560Z,52.43
2024-01-20T23:58:42.148Z,47.50
